Preview of NWS' New Version of Forecast
This preview is not operational and should not be used for support decisions.

Terminal Aerodrome Forecast (TAF)

Issued by National Weather Service (NWS)

                            
236 
FTUS42 KMFL 202326
TAFMIA
TAF
KMIA 202326Z 2100/2206 11011KT P6SM FEW020 SCT030
     FM211400 10015KT P6SM SCT025 BKN040
     FM220000 09010KT P6SM FEW020 SCT040=